Pagrindinis puslapis
METAR-TAF:

METAR-TAF

Oro uostai :

Agartala, Indija

platuma: 23-53-24N, ilguma: 91-14-32E, Aukštis: 14 m

Dabartinis oras

Ataskaita buvo paskelbta 28 minutes, ne 11:30 UTC
Vėjas 3 kt iš Pietų/Pietvakarių
Temperatūra 31°C
Drėgmė 84%
Slėgis 1002 hPa
Matomumas: 5000 m
Mažai debesys ne aukštis 1800 ft
Mažai debesys ne aukštis 3000 ft, Liūtiniai kamuoliniai debesys.
Su prošvaistėmis ne aukštis 10000 ft
rūkana

METAR: VEAT 151130Z 20003KT 5000 BR FEW018 FEW030CB BKN100 31/28 Q1002 NOSIG

Laikas: 17:28 (11:58 UTC)

Prognozė

Ataskaita buvo paskelbta 58 minutes, ne 11:00 UTC
Prognozė galioja nuo 15 metu 12 UTC su 15 metu 21 UTC
Vėjas 3 kt iš Pietų/Pietvakarių
Matomumas: 4000 m
Mažai debesys ne aukštis 1800 ft
Mažai debesys ne aukštis 3000 ft, Liūtiniai kamuoliniai debesys.
Su prošvaistėmis ne aukštis 10000 ft
lietus, rūkana

TAF: VEAT 151100Z 1512/1521 20003KT 4000 -RA BR FEW018 FEW030CB BKN100

Orai ataskaitas ir orų prognozės (METAR, TAF).

turimą stotys yra geltonos ir raudonos taškus žemėlapyje.

Perkelti pele per norėdami pamatyti stoties vardą.

Tada spustelėkite, norėdami matyti oro stebėjimo ir prognozės.

Norėdami pakeisti žemėlapį: spustelėkite ant žalios mygtukų su juodo kryžiaus žemyn,; žalią mygtuką su brūkšneliu, jei norite nutolinti; arba žalių rodyklių gretimoms žemėlapius.


METAR-TAF: